createdAt,value
2018-09-02T00:01:01.282Z,87.56
2018-09-02T00:03:29.797Z,87.25
2018-09-02T00:05:58.332Z,87.74
2018-09-02T00:08:26.852Z,87.97
2018-09-02T00:10:55.370Z,88.15
2018-09-02T00:13:23.840Z,87.73
2018-09-02T00:15:52.725Z,87.85
2018-09-02T00:18:21.225Z,88.15
2018-09-02T00:20:49.758Z,88.05
2018-09-02T00:23:18.230Z,87.82
2018-09-02T00:25:47.912Z,87.61
2018-09-02T00:28:16.398Z,87.80
2018-09-02T00:30:44.905Z,87.59
2018-09-02T00:33:13.452Z,87.99
2018-09-02T00:35:42.423Z,87.83
2018-09-02T00:38:10.996Z,87.97
2018-09-02T00:40:39.531Z,88.36
2018-09-02T00:43:08.122Z,88.26
2018-09-02T00:45:36.749Z,87.93
2018-09-02T00:48:05.337Z,87.69
2018-09-02T00:50:33.845Z,87.48
2018-09-02T00:53:02.352Z,88.19
2018-09-02T00:55:30.857Z,87.50
2018-09-02T00:57:59.400Z,87.64
2018-09-02T01:00:27.929Z,87.93
2018-09-02T01:02:56.428Z,87.89
2018-09-02T01:05:24.942Z,87.59
2018-09-02T01:07:54.854Z,87.34
2018-09-02T01:10:23.506Z,87.47
2018-09-02T01:12:52.177Z,87.29
2018-09-02T01:15:20.707Z,87.60
2018-09-02T01:17:49.277Z,87.59
2018-09-02T01:20:17.774Z,86.95
2018-09-02T01:22:46.298Z,86.77
2018-09-02T01:25:14.781Z,87.21
2018-09-02T01:27:43.343Z,87.44
2018-09-02T01:30:11.868Z,87.27
2018-09-02T01:32:40.361Z,87.57
2018-09-02T01:35:12.042Z,87.36
2018-09-02T01:37:40.582Z,87.09
2018-09-02T01:40:09.082Z,87.19
2018-09-02T01:42:37.573Z,87.16
2018-09-02T01:45:06.114Z,87.63
2018-09-02T01:47:34.661Z,87.66
2018-09-02T01:50:03.199Z,87.80
2018-09-02T01:52:31.740Z,87.51
2018-09-02T01:55:00.238Z,87.91
2018-09-02T01:57:28.751Z,87.67
2018-09-02T01:59:57.250Z,87.63
2018-09-02T02:02:25.781Z,87.22
2018-09-02T02:04:54.288Z,87.35
2018-09-02T02:07:22.798Z,87.08
2018-09-02T02:09:51.280Z,87.60
2018-09-02T02:12:19.778Z,87.22
2018-09-02T02:14:48.247Z,87.85
2018-09-02T02:17:16.800Z,87.82
2018-09-02T02:19:45.332Z,87.82
2018-09-02T02:22:13.863Z,88.02
2018-09-02T02:24:42.338Z,87.60
2018-09-02T02:27:10.845Z,87.90
2018-09-02T02:29:39.321Z,87.63
2018-09-02T02:32:07.825Z,87.55
2018-09-02T02:34:36.301Z,87.18
2018-09-02T02:37:04.947Z,87.31
2018-09-02T02:39:33.436Z,87.69
2018-09-02T02:42:01.985Z,87.63
2018-09-02T02:44:30.489Z,87.77
2018-09-02T02:46:58.997Z,88.02
2018-09-02T02:49:27.489Z,87.32
2018-09-02T02:51:55.980Z,87.96
2018-09-02T02:54:24.485Z,87.88
2018-09-02T02:56:52.967Z,88.38
2018-09-02T02:59:21.472Z,88.56
2018-09-02T03:01:49.936Z,87.91
2018-09-02T03:04:18.437Z,87.93
2018-09-02T03:06:46.920Z,87.90
2018-09-02T03:09:15.442Z,87.77
2018-09-02T03:11:43.982Z,88.33
2018-09-02T03:14:12.539Z,87.92
2018-09-02T03:16:41.297Z,87.78
2018-09-02T03:19:10.315Z,87.74
2018-09-02T03:21:38.869Z,87.65
2018-09-02T03:24:07.453Z,87.25
2018-09-02T03:26:35.925Z,87.13
2018-09-02T03:29:04.448Z,87.54
2018-09-02T03:31:32.933Z,87.53
2018-09-02T03:34:01.474Z,87.47
2018-09-02T03:36:29.921Z,87.25
2018-09-02T03:38:58.394Z,86.82
2018-09-02T03:41:26.880Z,86.78
2018-09-02T03:43:55.424Z,87.01
2018-09-02T03:46:23.898Z,87.17
2018-09-02T03:48:52.493Z,87.21
2018-09-02T03:51:21.001Z,86.57
2018-09-02T03:53:49.535Z,86.39
2018-09-02T03:56:18.019Z,86.90
2018-09-02T03:58:46.635Z,86.10
2018-09-02T04:01:15.100Z,86.32
2018-09-02T04:03:43.642Z,86.36
2018-09-02T04:06:12.122Z,86.41
2018-09-02T04:08:40.630Z,86.42
2018-09-02T04:11:09.126Z,86.45
2018-09-02T04:13:37.633Z,86.49
2018-09-02T04:16:06.144Z,86.08
2018-09-02T04:18:34.651Z,86.57
2018-09-02T04:21:03.105Z,86.31
2018-09-02T04:23:31.587Z,86.10
2018-09-02T04:26:00.095Z,86.81
2018-09-02T04:28:28.606Z,86.26
2018-09-02T04:30:57.085Z,86.36
2018-09-02T04:33:25.590Z,86.51
2018-09-02T04:35:54.063Z,86.31
2018-09-02T04:38:22.527Z,86.39
2018-09-02T04:40:51.041Z,85.82
2018-09-02T04:43:19.514Z,85.99
2018-09-02T04:45:48.054Z,85.88
2018-09-02T04:48:16.554Z,86.06
2018-09-02T04:50:45.058Z,85.81
2018-09-02T04:53:13.549Z,85.98
2018-09-02T04:55:42.080Z,86.34
2018-09-02T04:58:10.566Z,86.30
2018-09-02T05:00:39.073Z,86.52
2018-09-02T05:03:07.558Z,85.82
2018-09-02T05:05:36.054Z,86.02
2018-09-02T05:08:04.529Z,85.51
2018-09-02T05:10:33.047Z,85.90
2018-09-02T05:13:01.497Z,85.87
2018-09-02T05:15:30.010Z,85.65
2018-09-02T05:17:58.574Z,85.07
2018-09-02T05:20:27.062Z,85.54
2018-09-02T05:22:55.562Z,85.54
2018-09-02T05:25:24.118Z,85.55
2018-09-02T05:27:52.650Z,85.36
2018-09-02T05:30:21.226Z,85.13
2018-09-02T05:32:49.745Z,85.34
2018-09-02T05:35:18.253Z,85.33
2018-09-02T05:37:46.737Z,85.01
2018-09-02T05:40:15.252Z,84.45
2018-09-02T05:42:43.874Z,84.38
2018-09-02T05:45:12.369Z,85.09
2018-09-02T05:47:40.854Z,84.54
2018-09-02T05:50:09.390Z,84.74
2018-09-02T05:52:37.889Z,84.36
2018-09-02T05:55:07.026Z,84.42
2018-09-02T05:57:35.572Z,85.14
2018-09-02T06:00:04.535Z,85.56
2018-09-02T06:02:33.029Z,84.41
2018-09-02T06:05:01.634Z,84.54
2018-09-02T06:07:30.136Z,83.45
2018-09-02T06:09:58.645Z,82.66
2018-09-02T06:12:27.144Z,83.00
2018-09-02T06:14:55.650Z,81.57
2018-09-02T06:17:24.244Z,82.68
2018-09-02T06:19:52.718Z,82.20
2018-09-02T06:22:21.202Z,81.91
2018-09-02T06:24:49.728Z,80.42
2018-09-02T06:27:18.188Z,81.45
2018-09-02T06:29:46.722Z,80.65
2018-09-02T06:32:15.186Z,81.31
2018-09-02T06:34:43.663Z,80.45
2018-09-02T06:37:12.174Z,81.34
2018-09-02T06:39:40.733Z,81.10
2018-09-02T06:42:09.238Z,81.28
2018-09-02T06:44:37.745Z,81.16
2018-09-02T06:47:06.273Z,81.10
2018-09-02T06:49:34.761Z,80.74
2018-09-02T06:52:03.250Z,81.89
2018-09-02T06:54:31.897Z,80.67
2018-09-02T06:57:00.406Z,80.31
2018-09-02T06:59:28.888Z,79.48
2018-09-02T07:01:57.385Z,79.07
2018-09-02T07:04:26.716Z,78.54
2018-09-02T07:06:55.228Z,78.94
2018-09-02T07:09:23.736Z,78.70
2018-09-02T07:11:52.527Z,77.78
2018-09-02T07:14:21.013Z,77.05
2018-09-02T07:16:51.400Z,77.17
2018-09-02T07:19:20.074Z,77.37
2018-09-02T07:21:49.149Z,78.48
2018-09-02T07:24:22.313Z,77.83
2018-09-02T07:26:50.816Z,77.59
2018-09-02T07:29:19.273Z,76.42
2018-09-02T07:31:48.645Z,75.49
2018-09-02T07:34:17.295Z,74.40
2018-09-02T07:36:45.877Z,72.97
2018-09-02T07:39:14.389Z,70.16
2018-09-02T07:41:43.592Z,67.57
2018-09-02T07:44:12.438Z,65.78
2018-09-02T07:46:42.700Z,65.23
2018-09-02T07:49:11.861Z,65.64
2018-09-02T07:51:40.360Z,63.97
2018-09-02T07:54:08.825Z,62.34
2018-09-02T07:56:37.639Z,60.83
2018-09-02T07:59:06.265Z,61.46
2018-09-02T08:01:34.997Z,60.77
2018-09-02T08:04:03.665Z,63.28
2018-09-02T08:06:33.147Z,66.32
2018-09-02T08:09:01.653Z,67.08
2018-09-02T08:11:30.169Z,68.13
2018-09-02T08:13:59.561Z,69.73
2018-09-02T08:16:28.054Z,71.10
2018-09-02T08:18:56.649Z,72.55
2018-09-02T08:21:25.134Z,73.68
2018-09-02T08:23:53.589Z,74.27
2018-09-02T08:26:22.087Z,74.29
2018-09-02T08:28:50.605Z,73.99
2018-09-02T08:31:19.158Z,73.91
2018-09-02T08:33:47.632Z,74.34
2018-09-02T08:36:16.146Z,74.39
2018-09-02T08:38:44.668Z,74.06
2018-09-02T08:41:13.150Z,73.90
2018-09-02T08:43:41.650Z,74.46
2018-09-02T08:46:10.137Z,74.34
2018-09-02T08:48:38.649Z,75.40
2018-09-02T08:51:07.180Z,75.44
2018-09-02T08:53:35.690Z,75.67
2018-09-02T08:56:04.244Z,76.55
2018-09-02T08:58:32.728Z,76.47
2018-09-02T09:01:01.206Z,78.61
2018-09-02T09:03:29.757Z,79.63
2018-09-02T09:05:58.230Z,79.96
2018-09-02T09:08:26.879Z,79.71
2018-09-02T09:10:56.738Z,79.46
2018-09-02T09:13:25.238Z,78.04
2018-09-02T09:15:53.778Z,75.39
2018-09-02T09:18:22.277Z,72.55
2018-09-02T09:20:50.867Z,69.20
2018-09-02T09:23:19.437Z,67.05
2018-09-02T09:25:47.905Z,64.18
2018-09-02T09:31:10.162Z,65.57
2018-09-02T09:33:39.341Z,66.41
2018-09-02T09:36:07.963Z,67.89
2018-09-02T09:38:36.486Z,70.14
2018-09-02T09:41:06.262Z,71.64
2018-09-02T09:43:34.782Z,74.90
2018-09-02T09:46:03.300Z,75.39
2018-09-02T09:48:31.798Z,75.53
2018-09-02T09:51:00.291Z,73.80
2018-09-02T09:53:28.814Z,72.24
2018-09-02T09:55:57.358Z,70.09
2018-09-02T09:58:30.946Z,69.74
2018-09-02T10:00:59.433Z,68.81
2018-09-02T10:03:27.952Z,69.32
2018-09-02T10:05:56.430Z,71.06
2018-09-02T10:08:24.942Z,72.28
2018-09-02T10:10:53.466Z,72.66
2018-09-02T10:13:21.982Z,74.34
2018-09-02T10:15:50.508Z,74.57
2018-09-02T10:18:19.091Z,73.47
2018-09-02T10:20:47.510Z,72.84
2018-09-02T10:23:16.034Z,72.25
2018-09-02T10:25:44.525Z,72.93
2018-09-02T10:28:13.126Z,74.13
2018-09-02T10:30:42.361Z,74.30
2018-09-02T10:33:10.949Z,73.69
2018-09-02T10:35:39.452Z,73.73
2018-09-02T10:38:07.946Z,74.50
2018-09-02T10:40:36.428Z,75.23
2018-09-02T10:43:04.962Z,74.11
2018-09-02T10:48:26.301Z,73.71
2018-09-02T10:53:47.381Z,74.89
2018-09-02T11:10:38.326Z,77.82
2018-09-02T11:13:07.825Z,78.44
2018-09-02T11:18:29.627Z,78.90
2018-09-02T11:20:58.150Z,78.39
2018-09-02T11:23:26.708Z,78.47
2018-09-02T11:25:55.273Z,78.35
2018-09-02T11:28:23.802Z,78.20
2018-09-02T11:30:52.298Z,77.88
2018-09-02T11:33:20.893Z,77.22
2018-09-02T11:35:49.527Z,77.01
2018-09-02T11:38:18.094Z,75.41
2018-09-02T11:40:47.170Z,76.60
2018-09-02T11:43:16.778Z,76.89
2018-09-02T11:45:45.702Z,78.17
2018-09-02T11:48:19.854Z,78.03
2018-09-02T11:50:48.398Z,78.15
2018-09-02T11:53:16.946Z,77.68
2018-09-02T11:55:45.492Z,77.98
2018-09-02T11:58:13.996Z,77.21
2018-09-02T12:00:42.587Z,77.62
2018-09-02T12:03:11.132Z,77.66
2018-09-02T12:05:46.370Z,78.56
2018-09-02T12:08:16.539Z,78.21
2018-09-02T12:10:49.982Z,79.33
2018-09-02T12:13:18.500Z,80.19
2018-09-02T12:15:47.116Z,81.99
2018-09-02T12:18:15.700Z,83.38
2018-09-02T12:20:44.830Z,84.37
2018-09-02T12:23:13.306Z,84.53
2018-09-02T12:46:42.432Z,85.61
2018-09-02T12:52:17.643Z,79.81
2018-09-02T12:57:39.354Z,77.94
2018-09-02T13:03:00.532Z,77.22
2018-09-02T13:08:22.027Z,77.59
2018-09-02T13:10:50.601Z,74.31
2018-09-02T13:16:21.513Z,73.09
2018-09-02T13:18:50.038Z,75.69
2018-09-02T13:21:18.516Z,74.90
2018-09-02T13:23:47.050Z,76.31
2018-09-02T13:26:15.598Z,73.60
2018-09-02T13:28:44.086Z,74.67
2018-09-02T13:31:12.631Z,74.78
2018-09-02T13:33:41.124Z,75.94
2018-09-02T13:42:25.210Z,75.50
2018-09-02T13:44:55.435Z,76.51
2018-09-02T13:47:31.358Z,75.89
2018-09-02T13:49:59.915Z,76.28
2018-09-02T13:55:26.635Z,76.28
2018-09-02T14:03:40.137Z,74.50
2018-09-02T14:29:51.948Z,75.23
2018-09-02T14:35:15.891Z,75.98
2018-09-02T14:37:46.390Z,76.27
2018-09-02T14:57:53.002Z,76.18
2018-09-02T15:03:19.902Z,75.75
2018-09-02T15:17:26.759Z,79.01
2018-09-02T15:31:49.257Z,79.25
2018-09-02T16:03:33.378Z,73.56
2018-09-02T16:06:02.019Z,73.52
2018-09-02T16:08:30.555Z,73.70
2018-09-02T16:10:59.082Z,74.16
2018-09-02T16:13:27.626Z,74.79
2018-09-02T16:15:56.119Z,74.34
2018-09-02T16:18:24.662Z,75.05
2018-09-02T16:20:53.200Z,75.92
2018-09-02T16:23:21.747Z,76.40
2018-09-02T16:25:50.293Z,77.01
2018-09-02T16:31:13.854Z,78.01
2018-09-02T16:36:37.865Z,78.73
2018-09-02T16:39:10.229Z,78.62
2018-09-02T16:44:53.345Z,78.97
2018-09-02T16:53:31.079Z,79.41
2018-09-02T17:19:05.000Z,81.55
2018-09-02T17:41:50.238Z,84.18
2018-09-02T17:44:23.175Z,84.59
2018-09-02T17:49:44.564Z,85.25
2018-09-02T17:55:05.941Z,86.01
2018-09-02T18:03:39.395Z,86.40
2018-09-02T18:09:00.887Z,86.40
2018-09-02T18:11:31.114Z,86.82
2018-09-02T18:13:59.826Z,86.92
2018-09-02T18:16:28.343Z,87.33
2018-09-02T18:18:56.921Z,86.81
2018-09-02T18:21:25.377Z,86.91
2018-09-02T18:23:53.898Z,87.03
2018-09-02T18:26:22.359Z,87.24
2018-09-02T18:28:51.479Z,87.42
2018-09-02T18:31:20.006Z,86.89
2018-09-02T18:33:48.557Z,86.59
2018-09-02T18:36:17.139Z,87.08
2018-09-02T18:38:45.722Z,86.64
2018-09-02T18:41:14.289Z,86.66
2018-09-02T18:43:44.051Z,86.30
2018-09-02T18:46:12.958Z,86.61
2018-09-02T18:48:41.493Z,86.37
2018-09-02T18:51:10.217Z,86.33
2018-09-02T18:53:38.942Z,86.24
2018-09-02T18:56:07.561Z,86.21
2018-09-02T18:58:36.318Z,86.42
2018-09-02T19:01:05.334Z,85.93
2018-09-02T19:03:33.884Z,86.12
2018-09-02T19:06:03.330Z,86.20
2018-09-02T19:08:31.890Z,86.59
2018-09-02T19:11:00.458Z,87.14
2018-09-02T19:13:28.938Z,87.19
2018-09-02T19:15:57.526Z,86.56
2018-09-02T19:18:26.022Z,86.95
2018-09-02T19:20:54.535Z,86.57
2018-09-02T19:23:23.034Z,86.92
2018-09-02T19:25:51.555Z,87.21
2018-09-02T19:28:20.058Z,87.09
2018-09-02T19:30:48.559Z,87.52
2018-09-02T19:33:17.046Z,87.42
2018-09-02T19:35:45.551Z,87.22
2018-09-02T19:38:14.080Z,87.05
2018-09-02T19:40:42.586Z,87.41
2018-09-02T19:43:11.105Z,87.09
2018-09-02T19:45:39.590Z,87.17
2018-09-02T19:48:08.073Z,87.03
2018-09-02T19:50:36.573Z,86.95
2018-09-02T19:53:05.098Z,86.76
2018-09-02T19:55:33.629Z,86.74
2018-09-02T19:58:02.156Z,87.01
2018-09-02T20:00:30.671Z,87.93
2018-09-02T20:02:59.165Z,87.97
2018-09-02T20:05:27.694Z,88.05
2018-09-02T20:07:56.235Z,88.43
2018-09-02T20:10:24.760Z,88.02
2018-09-02T20:12:53.274Z,88.01
2018-09-02T20:15:21.808Z,88.11
2018-09-02T20:17:50.307Z,87.58
2018-09-02T20:20:18.894Z,87.58
2018-09-02T20:22:47.374Z,87.58
2018-09-02T20:25:15.886Z,87.77
2018-09-02T20:27:44.366Z,88.07
2018-09-02T20:30:13.070Z,88.03
2018-09-02T20:32:41.614Z,87.34
2018-09-02T20:35:10.131Z,86.75
2018-09-02T20:37:38.632Z,86.46
2018-09-02T20:40:08.370Z,86.64
2018-09-02T20:42:36.875Z,86.53
2018-09-02T20:45:05.491Z,86.38
2018-09-02T20:50:26.082Z,87.25
2018-09-02T20:55:50.799Z,87.91
2018-09-02T20:58:19.408Z,87.48
2018-09-02T21:00:52.774Z,87.41
2018-09-02T21:06:14.378Z,87.00
2018-09-02T21:08:42.882Z,86.78
2018-09-02T21:11:12.137Z,87.07
2018-09-02T21:16:33.969Z,87.26
2018-09-02T21:19:02.673Z,87.29
2018-09-02T21:21:32.211Z,87.11
2018-09-02T21:24:02.801Z,87.25
2018-09-02T21:32:16.805Z,87.24
2018-09-02T21:34:45.394Z,87.03
2018-09-02T21:37:15.792Z,87.01
2018-09-02T21:39:47.310Z,87.34
2018-09-02T21:45:07.050Z,86.86
2018-09-02T21:47:37.541Z,87.12
2018-09-02T21:50:06.418Z,87.16
2018-09-02T21:55:31.046Z,88.33
2018-09-02T21:58:05.578Z,88.38
2018-09-02T22:00:34.114Z,88.65
2018-09-02T22:05:55.067Z,88.86
2018-09-02T22:08:23.868Z,88.80
2018-09-02T22:10:52.397Z,89.38
2018-09-02T22:13:20.876Z,89.68
2018-09-02T22:15:49.380Z,90.49
2018-09-02T22:18:17.867Z,90.68
2018-09-02T22:20:46.394Z,90.66
2018-09-02T22:23:14.845Z,90.58
2018-09-02T22:25:43.369Z,90.32
2018-09-02T22:28:11.853Z,90.56
2018-09-02T22:30:40.346Z,90.19
2018-09-02T22:33:08.884Z,89.90
2018-09-02T22:35:37.373Z,90.44
2018-09-02T22:38:05.952Z,90.01
2018-09-02T22:40:34.456Z,90.00
2018-09-02T22:43:02.958Z,90.06
2018-09-02T22:45:31.468Z,90.23
2018-09-02T22:48:00.041Z,89.93
2018-09-02T22:50:28.577Z,89.91
2018-09-02T22:52:57.053Z,90.04
2018-09-02T22:55:25.556Z,89.64
2018-09-02T22:57:54.086Z,89.24
2018-09-02T23:00:22.578Z,88.91
2018-09-02T23:02:51.074Z,88.33
2018-09-02T23:05:19.609Z,88.39
2018-09-02T23:07:48.120Z,88.64
2018-09-02T23:10:16.615Z,88.58
2018-09-02T23:12:45.683Z,88.49
2018-09-02T23:15:14.285Z,88.24
2018-09-02T23:17:42.830Z,88.45
2018-09-02T23:20:11.360Z,88.74
2018-09-02T23:22:40.125Z,88.53
2018-09-02T23:25:10.153Z,88.13
2018-09-02T23:27:38.726Z,87.64
2018-09-02T23:30:07.225Z,87.57
2018-09-02T23:32:35.721Z,87.34
2018-09-02T23:35:04.314Z,87.28
2018-09-02T23:37:32.842Z,87.21
2018-09-02T23:42:53.506Z,87.63
2018-09-02T23:45:22.029Z,87.74
2018-09-02T23:47:51.118Z,87.86
2018-09-02T23:50:19.625Z,87.82
2018-09-02T23:53:06.056Z,87.93
2018-09-02T23:55:34.623Z,87.98
2018-09-02T23:58:07.180Z,88.11
